createdAt,value
2023-02-13T07:57:16.746Z,100.00
2023-02-13T07:59:45.605Z,100.00
2023-02-13T08:02:15.341Z,100.00
2023-02-13T08:04:46.322Z,100.00
2023-02-13T08:07:17.135Z,100.00
2023-02-13T08:10:05.996Z,100.00
2023-02-13T08:12:36.046Z,100.00
2023-02-13T08:15:05.479Z,100.00
2023-02-13T08:17:32.771Z,100.00
2023-02-13T08:20:00.148Z,100.00
2023-02-13T08:22:27.509Z,100.00
2023-02-13T08:24:54.822Z,100.00
2023-02-13T08:27:23.053Z,100.00
2023-02-13T08:29:53.834Z,100.00
2023-02-13T08:32:21.181Z,100.00
2023-02-13T08:34:48.518Z,100.00
2023-02-13T08:37:16.732Z,100.00
2023-02-13T08:39:44.698Z,100.00
2023-02-13T08:42:15.674Z,100.00
2023-02-13T08:44:44.285Z,100.00
2023-02-13T08:47:11.869Z,100.00
2023-02-13T08:49:39.193Z,100.00
2023-02-13T08:52:06.556Z,100.00
2023-02-13T08:54:36.152Z,100.00
2023-02-13T08:57:03.982Z,100.00
2023-02-13T08:59:31.397Z,100.00
2023-02-13T09:01:58.964Z,100.00
2023-02-13T09:04:26.353Z,100.00
2023-02-13T09:06:53.912Z,100.00
2023-02-13T09:09:21.313Z,100.00
2023-02-13T09:11:48.682Z,100.00
2023-02-13T09:14:16.026Z,100.00
2023-02-13T09:16:43.387Z,100.00
2023-02-13T09:19:10.714Z,100.00
2023-02-13T09:21:38.028Z,100.00
2023-02-13T09:24:10.456Z,100.00
2023-02-13T09:26:37.934Z,100.00
2023-02-13T09:29:05.262Z,100.00
2023-02-13T09:31:32.662Z,100.00
2023-02-13T09:34:00.030Z,100.00
2023-02-13T09:36:27.360Z,100.00
2023-02-13T09:38:57.691Z,100.00
2023-02-13T09:41:40.973Z,100.00
2023-02-13T09:44:44.710Z,100.00
2023-02-13T09:47:37.233Z,100.00
2023-02-13T09:50:28.634Z,100.00
2023-02-13T09:52:58.494Z,100.00
2023-02-13T09:56:16.380Z,100.00
2023-02-13T09:59:12.504Z,100.00
2023-02-13T10:01:50.541Z,99.75
2023-02-13T10:05:02.087Z,97.60
2023-02-13T10:08:12.819Z,92.92
2023-02-13T10:11:41.138Z,90.66
2023-02-13T10:15:05.422Z,88.16
2023-02-13T10:18:06.468Z,86.06
2023-02-13T10:20:52.768Z,85.02
2023-02-13T10:23:50.180Z,83.06
2023-02-13T10:26:42.709Z,81.08
2023-02-13T10:29:42.513Z,79.76
2023-02-13T10:32:17.234Z,78.75
2023-02-13T10:34:47.091Z,77.18
2023-02-13T10:37:21.421Z,75.54
2023-02-13T10:39:54.124Z,75.23
2023-02-13T10:42:42.130Z,73.90
2023-02-13T10:46:31.382Z,72.57
2023-02-13T10:49:17.837Z,70.92
2023-02-13T10:52:33.713Z,69.63
2023-02-13T10:55:30.570Z,70.09
2023-02-13T10:58:20.850Z,68.40
2023-02-13T11:01:13.598Z,66.89
2023-02-13T11:03:41.209Z,66.95
2023-02-13T11:06:18.142Z,65.56
2023-02-13T11:08:48.214Z,65.74
2023-02-13T11:11:39.066Z,64.12
2023-02-13T11:14:20.694Z,63.74
2023-02-13T11:17:09.740Z,62.61
2023-02-13T11:19:56.157Z,61.78
2023-02-13T11:22:42.709Z,60.69
2023-02-13T11:25:30.110Z,60.59
2023-02-13T11:28:21.208Z,60.24
2023-02-13T11:30:49.081Z,59.62
2023-02-13T11:33:28.654Z,58.20
2023-02-13T11:36:31.872Z,57.62
2023-02-13T11:39:17.757Z,57.56
2023-02-13T11:41:50.884Z,57.60
2023-02-13T11:44:31.285Z,56.46
2023-02-13T11:47:03.225Z,56.67
2023-02-13T11:49:39.461Z,55.94
2023-02-13T11:52:31.027Z,55.35
2023-02-13T11:55:31.448Z,54.67
2023-02-13T11:58:12.165Z,54.61
2023-02-13T12:00:42.494Z,53.65
2023-02-13T12:03:31.980Z,54.07
2023-02-13T12:06:15.869Z,54.05
2023-02-13T12:08:49.288Z,53.69
2023-02-13T12:11:42.190Z,53.09
2023-02-13T12:14:28.573Z,52.78
2023-02-13T12:17:29.211Z,52.69
2023-02-13T12:19:58.304Z,52.33
2023-02-13T12:22:41.962Z,52.42
2023-02-13T12:25:33.412Z,52.53
2023-02-13T12:28:43.931Z,51.15
2023-02-13T12:32:20.800Z,51.11
2023-02-13T12:35:34.028Z,51.02
2023-02-13T12:39:13.933Z,50.88
2023-02-13T12:42:51.947Z,49.63
2023-02-13T12:45:53.797Z,48.97
2023-02-13T12:48:58.429Z,49.30
2023-02-13T12:52:13.516Z,49.45
2023-02-13T12:55:27.344Z,49.33
2023-02-13T12:58:25.507Z,48.74
2023-02-13T13:01:57.836Z,48.62
2023-02-13T13:05:05.102Z,48.46
2023-02-13T13:07:54.777Z,48.27
2023-02-13T13:11:20.558Z,48.60
2023-02-13T13:14:42.228Z,48.54
2023-02-13T13:17:58.733Z,47.87
2023-02-13T13:20:52.338Z,48.16
2023-02-13T13:23:41.670Z,47.68
2023-02-13T13:26:43.677Z,47.58
2023-02-13T13:29:36.544Z,47.50
2023-02-13T13:32:13.749Z,48.22
2023-02-13T13:34:41.504Z,47.89
2023-02-13T13:37:48.101Z,48.69
2023-02-13T13:40:58.124Z,48.51
2023-02-13T13:44:03.191Z,49.84
2023-02-13T13:47:05.770Z,49.19
2023-02-13T13:49:58.585Z,49.72
2023-02-13T13:52:39.876Z,49.88
2023-02-13T13:55:29.573Z,49.60
2023-02-13T13:58:02.808Z,50.31
2023-02-13T14:00:31.378Z,50.68
2023-02-13T14:03:34.629Z,51.08
2023-02-13T14:06:22.026Z,52.34
2023-02-13T14:08:49.637Z,51.79
2023-02-13T14:11:47.249Z,52.83
2023-02-13T14:14:30.587Z,53.43
2023-02-13T14:17:04.220Z,53.80
2023-02-13T14:19:40.056Z,54.17
2023-02-13T14:22:19.482Z,54.24
2023-02-13T14:24:55.678Z,54.88
2023-02-13T14:27:40.784Z,53.89
2023-02-13T14:30:40.393Z,54.74
2023-02-13T14:33:31.755Z,55.39
2023-02-13T14:36:23.148Z,54.72
2023-02-13T14:39:20.969Z,54.48
2023-02-13T14:41:54.157Z,54.26
2023-02-13T14:44:50.043Z,55.05
2023-02-13T14:47:42.917Z,55.44
2023-02-13T14:50:45.884Z,55.57
2023-02-13T14:53:32.825Z,55.95
2023-02-13T14:56:13.739Z,56.34
2023-02-13T14:59:11.010Z,55.97
2023-02-13T15:02:31.115Z,56.60
2023-02-13T15:05:20.196Z,56.23
2023-02-13T15:08:28.404Z,56.62
2023-02-13T15:10:57.712Z,57.21
2023-02-13T15:13:37.459Z,57.38
2023-02-13T15:16:12.807Z,56.90
2023-02-13T15:18:52.823Z,57.36
2023-02-13T15:21:33.081Z,57.66
2023-02-13T15:24:00.467Z,58.10
2023-02-13T15:26:29.207Z,57.94
2023-02-13T15:29:27.924Z,58.14
2023-02-13T15:31:59.755Z,58.29
2023-02-13T15:34:36.078Z,58.46
2023-02-13T15:37:03.936Z,59.00
2023-02-13T15:39:32.849Z,58.39
2023-02-13T15:42:03.177Z,58.67
2023-02-13T15:44:38.543Z,58.68
2023-02-13T15:47:17.402Z,57.92
2023-02-13T15:49:47.816Z,57.65
2023-02-13T15:52:37.875Z,57.69
2023-02-13T15:55:06.098Z,57.69
2023-02-13T15:57:34.091Z,58.49
2023-02-13T16:00:02.967Z,57.17
2023-02-13T16:02:47.525Z,56.76
2023-02-13T16:05:19.999Z,56.49
2023-02-13T16:07:59.162Z,56.92
2023-02-13T16:10:37.256Z,56.04
2023-02-13T16:13:16.588Z,56.80
2023-02-13T16:15:44.682Z,56.68
2023-02-13T16:18:21.017Z,56.13
2023-02-13T16:20:56.469Z,56.32
2023-02-13T16:23:24.252Z,56.21
2023-02-13T16:25:52.122Z,56.29
2023-02-13T16:28:27.338Z,57.23
2023-02-13T16:31:03.218Z,57.31
2023-02-13T16:33:33.993Z,57.55
2023-02-13T16:36:29.542Z,58.85
2023-02-13T16:38:56.867Z,58.43
2023-02-13T16:41:26.743Z,58.86
2023-02-13T16:43:58.204Z,59.39
2023-02-13T16:46:38.016Z,59.34
2023-02-13T16:49:09.602Z,59.63
2023-02-13T16:52:12.299Z,60.49
2023-02-13T16:54:59.898Z,60.65
2023-02-13T16:57:34.531Z,60.38
2023-02-13T17:00:24.474Z,60.90
2023-02-13T17:02:52.803Z,60.42
2023-02-13T17:05:24.662Z,61.44
2023-02-13T17:08:01.408Z,61.75
2023-02-13T17:10:37.495Z,61.21
2023-02-13T17:13:20.127Z,61.65
2023-02-13T17:15:48.866Z,62.58
2023-02-13T17:18:16.205Z,62.55
2023-02-13T17:20:45.180Z,62.89
2023-02-13T17:23:22.538Z,62.76
2023-02-13T17:25:52.682Z,63.31
2023-02-13T17:28:27.787Z,63.00
2023-02-13T17:30:58.740Z,62.70
2023-02-13T17:33:34.684Z,62.89
2023-02-13T17:36:01.975Z,63.71
2023-02-13T17:38:29.305Z,64.53
2023-02-13T17:40:56.993Z,64.73
2023-02-13T17:43:26.889Z,64.81
2023-02-13T17:45:54.237Z,66.18
2023-02-13T17:48:21.670Z,66.66
2023-02-13T17:50:51.110Z,66.09
2023-02-13T17:53:30.213Z,66.78
2023-02-13T17:55:58.586Z,66.32
2023-02-13T17:58:26.042Z,67.75
2023-02-13T18:00:53.773Z,68.64
2023-02-13T18:03:22.289Z,69.24
2023-02-13T18:05:50.355Z,68.84
2023-02-13T18:08:17.799Z,68.41
2023-02-13T18:10:45.110Z,69.37
2023-02-13T18:13:12.503Z,69.51
2023-02-13T18:15:44.851Z,69.75
2023-02-13T18:18:16.183Z,71.06
2023-02-13T18:20:44.729Z,71.87
2023-02-13T18:23:12.034Z,72.78
2023-02-13T18:25:39.353Z,73.05
2023-02-13T18:28:06.729Z,74.00
2023-02-13T18:30:34.161Z,75.58
2023-02-13T18:33:05.009Z,77.11
2023-02-13T18:35:33.388Z,77.32
2023-02-13T18:38:00.849Z,78.62
2023-02-13T18:40:28.148Z,79.18
2023-02-13T18:42:55.462Z,80.07
2023-02-13T18:45:22.742Z,81.82
2023-02-13T18:47:50.062Z,82.82
2023-02-13T18:50:17.478Z,83.94
2023-02-13T18:52:44.906Z,85.62
2023-02-13T18:55:12.264Z,85.81
2023-02-13T18:57:43.365Z,86.50
2023-02-13T19:00:13.979Z,87.55
2023-02-13T19:02:41.332Z,88.51
2023-02-13T19:05:08.882Z,89.88
2023-02-13T19:07:36.765Z,91.39
2023-02-13T19:10:04.486Z,93.20
2023-02-13T19:12:31.839Z,91.50
2023-02-13T19:14:59.151Z,91.31
2023-02-13T19:17:26.562Z,91.49
2023-02-13T19:19:55.788Z,93.02
2023-02-13T19:22:23.117Z,93.83
2023-02-13T19:24:50.912Z,93.33
2023-02-13T19:27:18.645Z,93.65
2023-02-13T19:29:47.535Z,96.05
2023-02-13T19:32:14.889Z,96.34
2023-02-13T19:34:42.443Z,97.93
2023-02-13T19:37:09.738Z,96.79
2023-02-13T19:39:37.125Z,97.75
2023-02-13T19:42:04.696Z,96.63
2023-02-13T19:44:31.998Z,98.86
2023-02-13T19:46:59.304Z,99.66
2023-02-13T19:49:26.611Z,99.86
2023-02-13T19:51:53.893Z,99.52
2023-02-13T19:54:22.064Z,100.00
2023-02-13T19:56:49.456Z,100.00
2023-02-13T19:59:16.762Z,100.00
2023-02-13T20:01:44.278Z,100.00
2023-02-13T20:04:12.155Z,100.00
2023-02-13T20:06:40.030Z,100.00
2023-02-13T20:09:14.471Z,100.00
2023-02-13T20:11:43.748Z,100.00
2023-02-13T20:14:15.134Z,100.00
2023-02-13T20:16:45.604Z,100.00
2023-02-13T20:19:13.922Z,100.00
2023-02-13T20:21:42.837Z,100.00
2023-02-13T20:24:11.973Z,100.00
2023-02-13T20:26:40.281Z,100.00
2023-02-13T20:29:09.358Z,100.00
2023-02-13T20:31:39.497Z,100.00
2023-02-13T20:34:08.088Z,100.00
2023-02-13T20:36:35.756Z,100.00
2023-02-13T20:39:07.655Z,100.00
2023-02-13T20:41:37.756Z,100.00
2023-02-13T20:44:11.775Z,100.00
2023-02-13T20:46:40.373Z,100.00
2023-02-13T20:49:10.058Z,100.00
2023-02-13T20:51:37.499Z,100.00
2023-02-13T20:54:05.858Z,100.00
2023-02-13T20:56:33.189Z,100.00
2023-02-13T20:59:02.573Z,100.00
2023-02-13T21:01:41.285Z,100.00
2023-02-13T21:04:11.272Z,100.00
2023-02-13T21:06:41.581Z,100.00
2023-02-13T21:09:09.938Z,100.00
2023-02-13T21:11:43.177Z,100.00
2023-02-13T21:14:14.360Z,100.00
2023-02-13T21:16:42.918Z,100.00
2023-02-13T21:19:19.229Z,100.00
2023-02-13T21:21:47.596Z,100.00
2023-02-13T21:24:22.777Z,100.00
2023-02-13T21:26:52.718Z,100.00
2023-02-13T21:29:20.292Z,100.00
2023-02-13T21:31:48.036Z,100.00
2023-02-13T21:34:17.953Z,100.00
2023-02-13T21:36:46.069Z,100.00
2023-02-13T21:39:13.842Z,100.00
2023-02-13T21:41:45.684Z,100.00
2023-02-13T21:44:15.491Z,100.00
2023-02-13T21:46:45.186Z,100.00
2023-02-13T21:49:18.079Z,100.00
2023-02-13T21:51:47.050Z,100.00
2023-02-13T21:54:14.938Z,100.00
2023-02-13T21:56:44.157Z,100.00
2023-02-13T21:59:16.727Z,100.00
2023-02-13T22:01:54.026Z,100.00
2023-02-13T22:04:21.887Z,100.00
2023-02-13T22:06:52.521Z,100.00
